Weather observations for the past three days for
La Crosse - La Crosse Regional Airport
Metric (Imperial)
Date Time (cdt) Wind (kph) Vis. (km) Weather Sky Cond. Temperature (ºC) Relative Humidity Wind Chill (°C) Heat Index (°C) Pressure Precipitation (cm)
Air Dwpt 6 hour altimeter (cm) sea level (mb) 1 hr 3 hr 6 hr
Max. Min.
02 17:53 W 19 16.09 A Few Clouds FEW100 17.2 -2.8 26% 76 1013.3
02 16:53 NW 30 G 33 16.09 Fair CLR 18 -3 24% 76.05 0.0
02 15:53 W 20 16.09 Fair CLR 17.2 -3.3 25% 76.07 1014.6
02 14:53 NW 20 G 35 16.09 Fair CLR 16.7 -3.9 24% 76.15 1015.5
02 13:53 W 15 16.09 Partly Cloudy SCT080 16.1 -4.4 24% 76.23 1016.6
02 12:53 NW 13 16.09 Partly Cloudy SCT080 15 -3.3 15.6 3.3 28% 76.28 1017.3
02 11:53 N 20 16.09 A Few Clouds FEW080 14.4 -3.9 28% 76.33 1018.0
02 10:53 NW 9 16.09 A Few Clouds FEW075 13.3 -2.2 34% 76.38 1018.6
02 09:53 S 7 16.09 Fair CLR 10.6 -1.7 43% 76.4 1019.1
02 08:53 S 9 16.09 Fair CLR 7.8 -1.7 51% 6 76.45 1019.7
02 07:53 S 11 16.09 Fair CLR 5.6 -0.6 65% 3 76.48 1020.0
02 06:53 S 9 16.09 Fair CLR 3 0 81% 1 76.45 0.0
02 05:53 SE 7 16.09 Fair CLR 1.1 -1.1 85% -1 76.43 1019.7
02 04:53 S 7 16.09 Mostly Cloudy BKN090 1.7 -1.1 82% -0 76.45 1019.8
02 03:53 SE 7 16.09 A Few Clouds FEW095 1.7 -2.2 76% -0 76.43 1019.7
02 02:53 SE 7 16.09 Overcast OVC095 2.2 -2.2 73% 0 76.45 1019.7
02 01:53 SE 7 16.09 A Few Clouds FEW095 2.2 -2.2 73% 0 76.45 1019.7
01 23:53 SE 6 16.09 Fair CLR 3.9 -3.3 60% 76.43 1019.6
01 22:53 Calm 16.09 Fair CLR 5.6 -3.9 51% 76.43 1019.3
01 20:53 NE 7 16.09 Overcast OVC090 8.3 -5.6 37% 7 76.4 1019.0
01 18:53 NE 15 16.09 Overcast OVC085 10.6 -7.2 12.8 10 28% 76.33 1018.1
01 17:53 NE 9 16.09 Overcast OVC080 11.1 -7.2 27% 76.3 1018.0
01 16:53 NE 15 16.09 Mostly Cloudy BKN075 11.1 -6.7 28% 76.3 1017.9
01 15:53 N 19 16.09 Mostly Cloudy BKN075 11.1 -6.7 28% 76.3 1018.0
01 14:53 N 17 G 35 16.09 Partly Cloudy SCT070 11.7 -6.1 28% 76.3 1018.0
01 13:53 N 17 G 31 16.09 Partly Cloudy SCT075 11.7 -6.7 27% 76.3 1017.8
01 12:53 N 28 16.09 Partly Cloudy SCT065 11 -6 30% 76.3 0.0
01 11:53 NW 9 16.09 Mostly Cloudy BKN060 8.9 -4.4 39% 8 76.33 1018.3
01 10:53 NW 11 16.09 A Few Clouds FEW075 9 -3 43% 8 76.35 0.0
01 09:53 NW 9 16.09 Partly Cloudy SCT080 7.8 -3.9 44% 6 76.35 1018.6
01 08:53 Vrbl 7 16.09 Fair CLR 6.7 -2.2 53% 6 76.35 1018.6
01 07:53 Calm 16.09 A Few Clouds FEW070 4.4 -2.2 63% 76.35 1018.5
01 06:53 Calm 16.09 Fair CLR 1.1 -1.1 3.3 0 85% 76.33 1018.3
01 05:53 Calm 16.09 Fair CLR 1.1 -1.7 82% 76.3 1017.9
01 04:53 Calm 16.09 Overcast OVC090 2.2 -1.1 79% 76.28 1017.5
01 03:53 Calm 16.09 Overcast OVC080 2.2 -1.7 76% 76.28 1017.5
01 02:53 E 6 16.09 Overcast OVC075 1.7 -2.2 76% 76.28 1017.2
01 01:53 Calm 16.09 Fair CLR 2.8 -2.2 70% 76.28 1017.3
01 00:53 Calm 16.09 Fair CLR 2.8 -1.7 10 2.2 73% 76.28 1017.3
30 23:53 Calm 16.09 Fair CLR 3.9 -3.3 60% 76.25 1016.9
30 22:53 Calm 16.09 Fair CLR 4.4 -3.9 55% 76.25 1017.0
30 21:53 E 7 16.09 Fair CLR 5.6 -3.3 53% 4 76.25 1017.2
30 20:53 N 15 16.09 Fair CLR 6.1 -3.3 51% 3 76.23 1016.9
30 19:53 N 19 16.09 Fair CLR 7.8 -3.3 46% 5 76.17 1016.3
30 18:53 N 24 16.09 A Few Clouds FEW075 10 -3.3 13.9 10 39% 7 76.12 1015.3
30 17:53 N 26 16.09 Mostly Cloudy BKN080 10.6 -2.8 39% 76.1 1015.1
30 16:53 N 22 16.09 Mostly Cloudy BKN080 11.1 -2.2 40% 76.1 1015.0
30 15:53 N 24 G 35 16.09 Overcast OVC080 11.7 -2.2 38% 76.1 1015.0
30 14:53 N 20 G 31 16.09 Partly Cloudy FEW060 SCT075 13.9 -2.2 33% 76.12 1015.2
30 13:53 N 20 G 30 16.09 Partly Cloudy SCT065 12.8 -1.7 37% 76.15 1015.5
30 12:53 N 15 16.09 Partly Cloudy SCT055 11.7 -1.1 12.2 2.8 41% 76.17 1016.0
30 11:53 Vrbl 11 16.09 A Few Clouds FEW080 10.6 -1.7 43% 76.2 1016.4
30 10:53 NW 7 16.09 Overcast OVC085 9.4 0.6 55% 9 76.23 1016.6
30 09:53 Calm 16.09 Overcast OVC080 7.2 -1.1 56% 76.25 1017.0
30 08:53 N 9 16.09 Overcast OVC080 6.1 1.1 71% 4 76.25 1017.0
30 07:53 SE 6 16.09 Mostly Cloudy BKN080 3.9 -1.1 70% 76.23 1016.7
30 06:53 SE 9 16.09 Mostly Cloudy BKN090 2.8 -0.6 5.6 1.7 79% 1 76.23 1016.8
30 05:53 SE 6 16.09 Overcast OVC100 3 0 81% 76.25 0.0
30 04:53 Calm 16.09 Fair CLR 2.2 -0.6 82% 76.25 1017.1
30 03:53 Calm 16.09 Mostly Cloudy BKN075 1.7 -1.1 82% 76.25 1017.1
30 02:53 Calm 16.09 Mostly Cloudy BKN080 2.2 -0.6 82% 76.25 1017.1
30 01:53 Calm 16.09 Mostly Cloudy BKN080 3.9 -1.1 70% 76.25 1017.2
30 00:53 Calm 16.09 Fair CLR 5.6 -0.6 11.7 4.4 65% 76.28 1017.5
29 23:53 Calm 16.09 Mostly Cloudy BKN080 6.1 0.6 68% 76.28 1017.5
29 22:53 Calm 16.09 Overcast OVC080 6.7 0 63% 76.28 1017.5
29 21:53 N 6 16.09 Fair CLR 6.7 -2.8 51% 76.28 1017.4
29 20:53 N 7 16.09 Mostly Cloudy BKN080 8.3 -2.8 46% 7 76.23 1016.8
29 19:53 N 20 16.09 Partly Cloudy SCT080 10.6 -3.3 38% 76.23 1016.4
29 18:53 N 15 16.09 Partly Cloudy SCT100 11.7 -4.4 13.9 9.4 32% 76.2 1016.1
Date Time (cdt) Wind (kph) Vis. (km) Weather Sky Cond. Air Dwpt Max. Min. Relative Humidity Wind Chill (°C) Heat Index (°C) altimeter (cm) sea level (mb) 1 hr 3 hr 6 hr
6 hour
Temperature (ºC) Pressure Precipitation (cm)